Aeroporto :
LOGIN :

Iscrizione | Disclaimer

   EN    FR    IT 

 










Sommario :    VFR   VFR Marginale   IFR   IFR Intensivo   IFR Molto Intensivo
Visibilità : 
Base nubi : 
>= 8 km
>= 3000ft
5 / 8 km
1000 / 3000 ft
1500m / 5 km
500 / 1000 ft
800 / 1500m
200 / 500 ft
< 800m
< 200 ft
Simboli :   Temporali  Nebbia  Neve Forte  Precipitazioni Forti  Vento > 20 kt
SIGMETs :   Varie  Temporali  Ghiacco  Turbolenza  Onda orograficha  Ceneri Vulcaniche







- Altitudine del aeroporto : 49 ft
- Codice IATA : SEN
- Carte del aeroporto


EGMC - Southend

ULTIMO METAR :
  • 260750Z 19011KT 9999 FEW016 11/07 Q1010

METARs OBSOLETI :
  • 260720Z 19012KT 9999 FEW015 14/10 Q1010
  • 260650Z 20007KT 9999 FEW013 11/07 Q1009
  • 260620Z 19008KT 9999 FEW013 10/08 Q1009
  • 260550Z 20005KT 9999 FEW013 09/06 Q1009
  • 260520Z 19006KT 9999 FEW013 08/07 Q1009

TAF TAF EGMC
Valido dal 26 a 06 ore il 26 a 15 ore UTC


260458Z 2606/2615 17012KT 9999 SCT040
PROB30
TEMPO 2606/2609 7000 -SHRA BKN014
PROB40
TEMPO 2609/2615 6000 SHRA BKN014CB
Nessun NOTAM noto per questo aeroporto.



MetMap, La meteo Aeronautica in un colpo d'occhio ! - Copyright ORBIFLY Dicembre 2007 - Disclaimer

ORBIFLY MET'MAP TEAM :

Programmazione e sviluppo : Alexandra Zaïnal
Concezione e sviluppo : Baudouin d'Aumeries
Co-Programmazione e sviluppo : Marc-Olivier Méhu
Supporto tecnico e logistico : Manuel Goepfert
Aiuto per la traduzione : Arnaldo La Scala

Contatto : metmap@orbifly.com




FONTI E CREDITI :

   NOAA